Terminal Aerodrome Forecast
Issued by NWS Honolulu, HI

Home | Current Version | Previous Version | Text Only | Print | Product List | Glossary On
Versions: 1 2 3 4 5 6 7 8 9 10 11 12 13 14 15 16 17 18 19 20 21 22 23 24 25
000
FTPA31 PHFO 312002 AAA
TAFHNL
TAF AMD
PHNL 312002Z 3120/0124 06014G24KT P6SM VCSH SCT025 BKN035 OVC100
      TEMPO 3120/3122 -DZ BKN028
     FM010000 06018G28KT P6SM VCSH SCT025 BKN035 OVC100=

USA.gov is the U.S. government's official web portal to all federal, state and local government web resources and services.